»·PEaware :: N4667L L52-L88

N4667L :: L52-L88

FLIGHT INFORMATION

Flight Status: Arrived
Operator: Privately registered:
United States
More flights under this callsign
Pilot: Jan K. (187)
Aircraft: CESSNA 172 SKYHAWK
(C172)
More flights by this aircraft type
Origin: L52 Oceano Co
United States
Destination: L88 New Cuyama
United States
More flights between these airports :: More routes between these airports
Route: DCT
File this flight plan on PilotEdge
Remarks:
Altitude:
(Current/Filed)
5,500ft
Speed:
(Current/Filed)
110kts
Departed: 29-Dec-17 12:35 PM
Arrived: 29-Dec-17 01:07 PM
Distance/Time
Traveled:
47nm/0:31
Distance/Time
To Go:
Arrived

Flight Plot

Page will automatically refresh every two minutes.


Map Options




Map Legend


Flown Route
Filed Route
Departure Airport
Arrival Airport
Navaid (VOR, NDB)
Fix

Horizontal Profiles

Position Reports

Time Latitude Longitude Heading Altitude Ground
Speed
29-Dec-17 12:18 35.103474 -120.624708 213 17ft 0kts
29-Dec-17 12:19 35.103474 -120.624708 213 17ft 0kts
29-Dec-17 12:20 35.103474 -120.624708 213 17ft 0kts
29-Dec-17 12:21 35.103474 -120.624708 213 17ft 0kts
29-Dec-17 12:22 35.103474 -120.624708 213 17ft 0kts
29-Dec-17 12:23 35.103474 -120.624708 213 17ft 0kts
29-Dec-17 12:24 35.103473 -120.624708 213 17ft 0kts
29-Dec-17 12:25 35.103472 -120.624709 213 17ft 0kts
29-Dec-17 12:26 35.103471 -120.624710 213 17ft 0kts
29-Dec-17 12:27 35.103469 -120.624711 213 17ft 0kts
29-Dec-17 12:28 35.103468 -120.624712 213 17ft 0kts
29-Dec-17 12:29 35.103466 -120.624713 213 17ft 0kts
29-Dec-17 12:30 35.103465 -120.624715 213 17ft 0kts
29-Dec-17 12:31 35.103464 -120.624716 213 17ft 0kts
29-Dec-17 12:32 35.103462 -120.624717 213 17ft 0kts
29-Dec-17 12:33 35.103461 -120.624718 213 17ft 0kts
29-Dec-17 12:34 35.103460 -120.624719 213 17ft 0kts
29-Dec-17 12:35 35.103458 -120.624720 213 17ft 0kts
29-Dec-17 12:36 35.103457 -120.624721 213 17ft 0kts
29-Dec-17 12:37 35.102703 -120.623955 210 17ft 5kts
29-Dec-17 12:38 35.101665 -120.623526 122 17ft 8kts
29-Dec-17 12:39 35.099865 -120.620137 122 17ft 6kts
29-Dec-17 12:40 35.099771 -120.619955 120 17ft 0kts
29-Dec-17 12:41 35.101333 -120.621990 298 31ft 55kts
29-Dec-17 12:42 35.107789 -120.638821 257 729ft 76kts
29-Dec-17 12:43 35.086035 -120.629799 116 1299ft 119kts
29-Dec-17 12:44 35.072137 -120.597086 121 1598ft 99kts
29-Dec-17 12:45 35.058695 -120.570675 121 2044ft 111kts
29-Dec-17 12:46 35.052739 -120.535226 75 2984ft 91kts
29-Dec-17 12:47 35.058553 -120.510782 74 3651ft 84kts
29-Dec-17 12:48 35.065067 -120.483988 75 4323ft 100kts
29-Dec-17 12:49 35.074924 -120.441267 74 5232ft 125kts
29-Dec-17 12:50 35.082982 -120.407116 74 6014ft 124kts
29-Dec-17 12:51 35.091297 -120.367687 87 7024ft 109kts
29-Dec-17 12:52 35.093667 -120.327774 86 7494ft 117kts
29-Dec-17 12:53 35.095265 -120.288956 88 7523ft 127kts
29-Dec-17 12:54 35.096124 -120.244652 88 7506ft 118kts
29-Dec-17 12:55 35.097249 -120.204795 90 7502ft 124kts
29-Dec-17 12:56 35.096387 -120.161878 91 7493ft 129kts
29-Dec-17 12:57 35.095701 -120.118838 91 7503ft 118kts
29-Dec-17 12:58 35.095209 -120.080230 91 7505ft 109kts
29-Dec-17 12:59 35.094824 -120.043070 91 7506ft 117kts
29-Dec-17 13:00 35.094158 -120.002187 90 7515ft 112kts
29-Dec-17 13:01 35.093967 -119.964942 90 7502ft 117kts
29-Dec-17 13:02 35.083142 -119.927610 133 7513ft 131kts
29-Dec-17 13:03 35.057318 -119.896242 137 7501ft 121kts
29-Dec-17 13:04 35.033001 -119.868725 137 7517ft 129kts
29-Dec-17 13:05 35.006061 -119.838127 137 7393ft 125kts
29-Dec-17 13:06 34.983220 -119.811943 136 6887ft 106kts
29-Dec-17 13:07 34.964562 -119.781782 121 5899ft 107kts
29-Dec-17 13:08 34.950086 -119.751362 119 4907ft 111kts
29-Dec-17 13:09 34.935500 -119.720055 119 3903ft 106kts
29-Dec-17 13:10 34.922480 -119.690912 113 3253ft 80kts
29-Dec-17 13:11 34.916705 -119.668622 47 3180ft 71kts
29-Dec-17 13:12 34.934011 -119.671401 300 2587ft 77kts
29-Dec-17 13:13 34.940629 -119.687238 296 2206ft 16kts
29-Dec-17 13:14 34.942133 -119.690679 334 2206ft 4kts
29-Dec-17 13:15 34.942737 -119.690885 61 2206ft 1kts
29-Dec-17 13:16 34.942757 -119.690866 25 2206ft 0kts
29-Dec-17 13:17 34.942758 -119.690866 25 2206ft 0kts
29-Dec-17 13:18 34.942759 -119.690865 25 2206ft 0kts
29-Dec-17 13:19 34.942759 -119.690865 25 2206ft 0kts
29-Dec-17 13:20 34.942759 -119.690865 25 2206ft 0kts
29-Dec-17 13:21 34.942759 -119.690865 25 2206ft 0kts
29-Dec-17 13:22 34.942759 -119.690865 25 2206ft 0kts
29-Dec-17 13:23 34.942759 -119.690865 25 2206ft 0kts
29-Dec-17 13:24 34.942759 -119.690865 25 2206ft 0kts
29-Dec-17 13:25 34.942759 -119.690865 25 2206ft 0kts
29-Dec-17 13:26 34.942759 -119.690865 25 2206ft 0kts
29-Dec-17 13:27 34.942759 -119.690865 25 2206ft 0kts

Navigation Log

Ident Type
Flight plan parsing failed, navigation log unavailable